Elizabeth City Cg Air Station Regional Airport
KECG : now visible

Airfield :











YOU CAN JOIN US ON...

 
LOGIN :

Register | Disclaimer

   EN    FR    IT 

 









Legend :    VFR   Marginal VFR   IFR   Intensive IFR   Very Intensive IFR
Visi :
Ceiling :
>= 8 km
>= 3000ft
5 to 8 km
1000 to 3000 ft
1500m to 5 km
500 to 1000 ft
800 to 1500m
200 to 500 ft
< 800m
< 200 ft
Symbols :   Thunderstorms  Fog  Heavy snow  Heavy precipitations  Wind > 20 kt







- Airport Elevation : 12 ft


KECG - Elizabeth City Cg Air Station Regional

CURRENT METAR :
  • 252254Z 22007KT 10SM CLR 27/16 A2981 RMK AO2 SLP094 T02720156

EXPIRED METARs :
  • 252154Z 23012KT 10SM CLR 29/14 A2980 RMK AO2 SLP091 T02940139
  • 252054Z 23012KT 10SM CLR 31/13 A2980 RMK AO2 SLP091 T03060133 56010

TAF KECG
Valid from the 26 at 00:00 until the 27 at 00:00 UTC


252325Z 2600/2624 21007KT P6SM BKN200
FM261400 19018G27KT P6SM BKN070
FM261700 19020G32KT 4SM SHRA BKN060
FM262200 22017G26KT 4SM SHRA OVC050
KZDC FIR / North America



MET'MAP, your aeronautical weather chart ! - Copyright ORBIFLY December 2007 - Disclaimer

ORBIFLY MET'MAP TEAM :

Programming & Development : Alexandra Zaïnal
Concept & Development : Baudouin d'Aumeries
Co-Development & Prog : Marc-Olivier Méhu
Technical & hardware support : Manuel Goepfert

Contact : metmap@orbifly.com




SOURCES & CREDITS :

   NOAA       Earth
Advisory